This is the latest recevied weather packets stored in our database for station/object WX2NJ. If no packets are shown the sender has not sent any weather packets the latest 10 day(s).
| Time | Temp. | Humidity | Pressure | Rain* | Wind** | Luminosity | Snow |
|---|---|---|---|---|---|---|---|
| 1777818319 | 12.78° C | 42% | 1016.4 hPa | 0 mm | - | 136 W/m² | - |
| 1777818015 | 13.33° C | 43% | 1016.5 hPa | 0 mm | - | 191 W/m² | - |
| 1777817712 | 12.78° C | 42% | 1016.4 hPa | 0 mm | - | 143 W/m² | - |
| 1777817410 | 12.78° C | 44% | 1016.5 hPa | 0 mm | - | 221 W/m² | - |
| 1777817106 | 12.22° C | 44% | 1016.6 hPa | 0 mm | - | 181 W/m² | - |
| 1777816803 | 11.67° C | 45% | 1016.5 hPa | 0 mm | - | 159 W/m² | - |
| 1777816501 | 11.67° C | 50% | 1016.1 hPa | 0 mm | - | 220 W/m² | - |
| 1777816197 | 11.11° C | 48% | 1016.4 hPa | 0 mm | - | 198 W/m² | - |
| 1777815895 | 11.11° C | 50% | 1016.5 hPa | 0 mm | - | 194 W/m² | - |
| 1777815592 | 10.56° C | 50% | 1016.4 hPa | 0 mm | - | 201 W/m² | - |
| 1777815290 | 10.56° C | 48% | 1016.4 hPa | 0 mm | - | 198 W/m² | - |
| 1777814985 | 10.56° C | 48% | 1016.3 hPa | 0 mm | - | 206 W/m² | - |
| 1777814682 | 11.11° C | 49% | 1016.2 hPa | 0 mm | - | 188 W/m² | - |
| 1777814379 | 11.67° C | 49% | 1016.2 hPa | 0 mm | - | 218 W/m² | - |
| 1777814076 | 10.56° C | 51% | 1016.1 hPa | 0 mm | - | 234 W/m² | - |
| 1777813773 | 10° C | 53% | 1016.2 hPa | 0 mm | - | 133 W/m² | - |
| 1777813471 | 10° C | 54% | 1016.3 hPa | 0 mm | - | 158 W/m² | - |
| 1777813168 | 10° C | 56% | 1016 hPa | 0 mm | - | 154 W/m² | - |
| 1777812866 | 9.44° C | 55% | 1016 hPa | 0 mm | - | 130 W/m² | - |
| 1777812562 | 9.44° C | 54% | 1016 hPa | 0 mm | - | 117 W/m² | - |
| 1777812260 | 9.44° C | 54% | 1016 hPa | 0 mm | - | 102 W/m² | - |
| 1777811958 | 9.44° C | 54% | 1016 hPa | 0 mm | - | 99 W/m² | - |
| 1777811656 | 9.44° C | 54% | 1016.1 hPa | 0 mm | - | 106 W/m² | - |
| 1777811351 | 9.44° C | 54% | 1016 hPa | 0 mm | - | 119 W/m² | - |
| 1777811049 | 9.44° C | 57% | 1015.9 hPa | 0 mm | - | 149 W/m² | - |
* Rain latest hour (hover to see other rain measurements)
** Current wind speed in m/s (hover to see current wind gust speed)